sensor_id;sensor_type;location;lat;lon;timestamp;temperature;humidity
69208;SHT31;70114;47.690;8.898;2024-02-26T00:00:29;7.88;61.73
69208;SHT31;70114;47.690;8.898;2024-02-26T00:02:55;7.90;61.73
69208;SHT31;70114;47.690;8.898;2024-02-26T00:05:21;7.90;62.10
69208;SHT31;70114;47.690;8.898;2024-02-26T00:07:46;7.93;63.44
69208;SHT31;70114;47.690;8.898;2024-02-26T00:10:13;7.93;63.27
69208;SHT31;70114;47.690;8.898;2024-02-26T00:12:38;7.97;62.59
69208;SHT31;70114;47.690;8.898;2024-02-26T00:15:08;7.96;62.74
69208;SHT31;70114;47.690;8.898;2024-02-26T00:17:34;7.93;63.91
69208;SHT31;70114;47.690;8.898;2024-02-26T00:19:59;7.96;63.89
69208;SHT31;70114;47.690;8.898;2024-02-26T00:22:26;7.85;65.07
69208;SHT31;70114;47.690;8.898;2024-02-26T00:24:51;7.85;64.90
69208;SHT31;70114;47.690;8.898;2024-02-26T00:27:17;7.85;64.79
69208;SHT31;70114;47.690;8.898;2024-02-26T00:29:42;7.83;64.64
69208;SHT31;70114;47.690;8.898;2024-02-26T00:32:07;7.86;65.29
69208;SHT31;70114;47.690;8.898;2024-02-26T00:34:33;7.88;65.58
69208;SHT31;70114;47.690;8.898;2024-02-26T00:36:58;7.83;64.51
69208;SHT31;70114;47.690;8.898;2024-02-26T00:39:24;7.85;63.79
69208;SHT31;70114;47.690;8.898;2024-02-26T00:41:49;7.83;64.70
69208;SHT31;70114;47.690;8.898;2024-02-26T00:44:16;7.79;65.45
69208;SHT31;70114;47.690;8.898;2024-02-26T00:46:42;7.83;65.78
69208;SHT31;70114;47.690;8.898;2024-02-26T00:49:07;7.82;65.60
69208;SHT31;70114;47.690;8.898;2024-02-26T00:51:32;7.74;66.18
69208;SHT31;70114;47.690;8.898;2024-02-26T00:53:58;7.77;65.90
69208;SHT31;70114;47.690;8.898;2024-02-26T00:56:23;7.72;66.35
69208;SHT31;70114;47.690;8.898;2024-02-26T00:58:49;7.68;66.00
69208;SHT31;70114;47.690;8.898;2024-02-26T01:01:14;7.71;65.67
69208;SHT31;70114;47.690;8.898;2024-02-26T01:03:39;7.65;65.66
69208;SHT31;70114;47.690;8.898;2024-02-26T01:06:05;7.61;65.47
69208;SHT31;70114;47.690;8.898;2024-02-26T01:08:30;7.64;65.18
69208;SHT31;70114;47.690;8.898;2024-02-26T01:10:57;7.64;65.97
69208;SHT31;70114;47.690;8.898;2024-02-26T01:13:22;7.69;66.29
69208;SHT31;70114;47.690;8.898;2024-02-26T01:15:48;7.69;66.18
69208;SHT31;70114;47.690;8.898;2024-02-26T01:18:13;7.54;66.15
69208;SHT31;70114;47.690;8.898;2024-02-26T01:20:38;7.62;66.61
69208;SHT31;70114;47.690;8.898;2024-02-26T01:23:04;7.62;66.55
69208;SHT31;70114;47.690;8.898;2024-02-26T01:25:29;7.58;66.99
69208;SHT31;70114;47.690;8.898;2024-02-26T01:27:54;7.57;64.78
69208;SHT31;70114;47.690;8.898;2024-02-26T01:30:20;7.59;66.04
69208;SHT31;70114;47.690;8.898;2024-02-26T01:32:45;7.61;66.92
69208;SHT31;70114;47.690;8.898;2024-02-26T01:35:11;7.61;67.22
69208;SHT31;70114;47.690;8.898;2024-02-26T01:37:37;7.59;67.57
69208;SHT31;70114;47.690;8.898;2024-02-26T01:40:03;7.61;67.46
69208;SHT31;70114;47.690;8.898;2024-02-26T01:42:30;7.62;66.94
69208;SHT31;70114;47.690;8.898;2024-02-26T01:44:56;7.58;67.13
69208;SHT31;70114;47.690;8.898;2024-02-26T01:47:22;7.62;67.09
69208;SHT31;70114;47.690;8.898;2024-02-26T01:49:48;7.58;66.88
69208;SHT31;70114;47.690;8.898;2024-02-26T01:52:13;7.61;67.19
69208;SHT31;70114;47.690;8.898;2024-02-26T01:54:40;7.59;66.68
69208;SHT31;70114;47.690;8.898;2024-02-26T01:57:06;7.59;66.94
69208;SHT31;70114;47.690;8.898;2024-02-26T01:59:32;7.57;67.73
69208;SHT31;70114;47.690;8.898;2024-02-26T02:02:01;7.57;67.79
69208;SHT31;70114;47.690;8.898;2024-02-26T02:04:28;7.57;67.63
69208;SHT31;70114;47.690;8.898;2024-02-26T02:06:54;7.54;67.32
69208;SHT31;70114;47.690;8.898;2024-02-26T02:09:20;7.54;67.07
69208;SHT31;70114;47.690;8.898;2024-02-26T02:11:48;7.54;66.74
69208;SHT31;70114;47.690;8.898;2024-02-26T02:14:14;7.38;66.69
69208;SHT31;70114;47.690;8.898;2024-02-26T02:16:39;7.48;66.04
69208;SHT31;70114;47.690;8.898;2024-02-26T02:19:05;7.43;66.72
69208;SHT31;70114;47.690;8.898;2024-02-26T02:21:30;7.37;66.68
69208;SHT31;70114;47.690;8.898;2024-02-26T02:23:56;7.40;67.41
69208;SHT31;70114;47.690;8.898;2024-02-26T02:26:21;7.43;67.38
69208;SHT31;70114;47.690;8.898;2024-02-26T02:28:47;7.23;68.06
69208;SHT31;70114;47.690;8.898;2024-02-26T02:31:14;7.35;68.65
69208;SHT31;70114;47.690;8.898;2024-02-26T02:33:40;7.40;68.64
69208;SHT31;70114;47.690;8.898;2024-02-26T02:36:06;7.37;69.20
69208;SHT31;70114;47.690;8.898;2024-02-26T02:38:35;7.38;69.15
69208;SHT31;70114;47.690;8.898;2024-02-26T02:41:01;7.37;69.17
69208;SHT31;70114;47.690;8.898;2024-02-26T02:43:26;7.38;68.96
69208;SHT31;70114;47.690;8.898;2024-02-26T02:45:51;7.32;69.61
69208;SHT31;70114;47.690;8.898;2024-02-26T02:48:17;7.37;69.15
69208;SHT31;70114;47.690;8.898;2024-02-26T02:50:43;7.40;69.15
69208;SHT31;70114;47.690;8.898;2024-02-26T02:53:08;7.32;68.74
69208;SHT31;70114;47.690;8.898;2024-02-26T02:55:34;7.24;67.68
69208;SHT31;70114;47.690;8.898;2024-02-26T02:57:59;7.24;66.44
69208;SHT31;70114;47.690;8.898;2024-02-26T03:00:25;7.31;67.32
69208;SHT31;70114;47.690;8.898;2024-02-26T03:02:50;7.35;67.66
69208;SHT31;70114;47.690;8.898;2024-02-26T03:05:15;7.40;67.77
69208;SHT31;70114;47.690;8.898;2024-02-26T03:07:41;7.41;67.76
69208;SHT31;70114;47.690;8.898;2024-02-26T03:10:07;7.43;67.39
69208;SHT31;70114;47.690;8.898;2024-02-26T03:12:34;7.37;65.46
69208;SHT31;70114;47.690;8.898;2024-02-26T03:14:59;7.35;64.46
69208;SHT31;70114;47.690;8.898;2024-02-26T03:17:31;7.31;64.04
69208;SHT31;70114;47.690;8.898;2024-02-26T03:19:56;7.46;64.71
69208;SHT31;70114;47.690;8.898;2024-02-26T03:22:21;7.44;65.15
69208;SHT31;70114;47.690;8.898;2024-02-26T03:24:47;7.43;65.12
69208;SHT31;70114;47.690;8.898;2024-02-26T03:27:13;7.48;65.05
69208;SHT31;70114;47.690;8.898;2024-02-26T03:29:38;7.50;63.12
69208;SHT31;70114;47.690;8.898;2024-02-26T03:32:05;7.34;63.79
69208;SHT31;70114;47.690;8.898;2024-02-26T03:34:31;7.10;62.50
69208;SHT31;70114;47.690;8.898;2024-02-26T03:36:56;6.92;63.38
69208;SHT31;70114;47.690;8.898;2024-02-26T03:39:22;6.90;62.83
69208;SHT31;70114;47.690;8.898;2024-02-26T03:41:48;7.00;62.71
69208;SHT31;70114;47.690;8.898;2024-02-26T03:44:13;6.83;62.51
69208;SHT31;70114;47.690;8.898;2024-02-26T03:46:39;6.71;62.73
69208;SHT31;70114;47.690;8.898;2024-02-26T03:49:04;6.81;63.17
69208;SHT31;70114;47.690;8.898;2024-02-26T03:51:29;6.95;62.75
69208;SHT31;70114;47.690;8.898;2024-02-26T03:53:57;6.71;62.93
69208;SHT31;70114;47.690;8.898;2024-02-26T03:56:23;6.75;62.26
69208;SHT31;70114;47.690;8.898;2024-02-26T03:58:48;6.78;63.08
69208;SHT31;70114;47.690;8.898;2024-02-26T04:01:14;6.58;63.34
69208;SHT31;70114;47.690;8.898;2024-02-26T04:03:39;6.67;62.71
69208;SHT31;70114;47.690;8.898;2024-02-26T04:06:08;6.67;61.88
69208;SHT31;70114;47.690;8.898;2024-02-26T04:08:33;6.78;64.01
69208;SHT31;70114;47.690;8.898;2024-02-26T04:10:58;6.85;64.12
69208;SHT31;70114;47.690;8.898;2024-02-26T04:13:24;6.95;64.55
69208;SHT31;70114;47.690;8.898;2024-02-26T04:15:49;6.99;64.05
69208;SHT31;70114;47.690;8.898;2024-02-26T04:18:15;7.04;64.84
69208;SHT31;70114;47.690;8.898;2024-02-26T04:20:40;6.69;66.90
69208;SHT31;70114;47.690;8.898;2024-02-26T04:23:07;6.73;67.48
69208;SHT31;70114;47.690;8.898;2024-02-26T04:25:33;6.90;66.86
69208;SHT31;70114;47.690;8.898;2024-02-26T04:27:58;6.99;66.74
69208;SHT31;70114;47.690;8.898;2024-02-26T04:30:23;6.99;67.12
69208;SHT31;70114;47.690;8.898;2024-02-26T04:32:49;6.93;67.16
69208;SHT31;70114;47.690;8.898;2024-02-26T04:35:14;6.96;66.44
69208;SHT31;70114;47.690;8.898;2024-02-26T04:37:40;7.03;66.93
69208;SHT31;70114;47.690;8.898;2024-02-26T04:40:05;7.02;66.79
69208;SHT31;70114;47.690;8.898;2024-02-26T04:42:31;7.07;65.82
69208;SHT31;70114;47.690;8.898;2024-02-26T04:44:56;7.10;65.81
69208;SHT31;70114;47.690;8.898;2024-02-26T04:47:22;7.09;67.01
69208;SHT31;70114;47.690;8.898;2024-02-26T04:49:49;7.04;65.06
69208;SHT31;70114;47.690;8.898;2024-02-26T04:52:15;7.07;64.43
69208;SHT31;70114;47.690;8.898;2024-02-26T04:54:40;7.02;64.28
69208;SHT31;70114;47.690;8.898;2024-02-26T04:57:05;7.02;63.36
69208;SHT31;70114;47.690;8.898;2024-02-26T04:59:31;6.99;64.07
69208;SHT31;70114;47.690;8.898;2024-02-26T05:01:56;6.95;63.49
69208;SHT31;70114;47.690;8.898;2024-02-26T05:04:21;6.97;63.57
69208;SHT31;70114;47.690;8.898;2024-02-26T05:06:47;6.93;63.96
69208;SHT31;70114;47.690;8.898;2024-02-26T05:09:12;6.96;63.36
69208;SHT31;70114;47.690;8.898;2024-02-26T05:11:38;6.92;63.55
69208;SHT31;70114;47.690;8.898;2024-02-26T05:14:03;6.97;63.64
69208;SHT31;70114;47.690;8.898;2024-02-26T05:16:29;6.97;64.07
69208;SHT31;70114;47.690;8.898;2024-02-26T05:18:56;6.99;64.43
69208;SHT31;70114;47.690;8.898;2024-02-26T05:21:21;7.03;64.45
69208;SHT31;70114;47.690;8.898;2024-02-26T05:23:47;6.86;65.48
69208;SHT31;70114;47.690;8.898;2024-02-26T05:26:19;6.96;65.55
69208;SHT31;70114;47.690;8.898;2024-02-26T05:28:44;6.97;65.36
69208;SHT31;70114;47.690;8.898;2024-02-26T05:31:12;6.96;65.69
69208;SHT31;70114;47.690;8.898;2024-02-26T05:33:38;6.97;65.32
69208;SHT31;70114;47.690;8.898;2024-02-26T05:36:03;7.02;64.94
69208;SHT31;70114;47.690;8.898;2024-02-26T05:38:30;7.00;63.71
69208;SHT31;70114;47.690;8.898;2024-02-26T05:40:57;7.04;64.23
69208;SHT31;70114;47.690;8.898;2024-02-26T05:43:23;6.78;66.36
69208;SHT31;70114;47.690;8.898;2024-02-26T05:45:48;6.56;66.83
69208;SHT31;70114;47.690;8.898;2024-02-26T05:48:14;6.81;65.98
69208;SHT31;70114;47.690;8.898;2024-02-26T05:50:39;6.86;65.67
69208;SHT31;70114;47.690;8.898;2024-02-26T05:53:04;6.92;65.85
69208;SHT31;70114;47.690;8.898;2024-02-26T05:55:30;6.89;65.97
69208;SHT31;70114;47.690;8.898;2024-02-26T05:57:55;6.85;66.77
69208;SHT31;70114;47.690;8.898;2024-02-26T06:00:21;6.90;66.74
69208;SHT31;70114;47.690;8.898;2024-02-26T06:02:46;6.90;66.26
69208;SHT31;70114;47.690;8.898;2024-02-26T06:05:11;6.93;66.73
69208;SHT31;70114;47.690;8.898;2024-02-26T06:07:37;6.99;66.51
69208;SHT31;70114;47.690;8.898;2024-02-26T06:10:02;6.99;66.35
69208;SHT31;70114;47.690;8.898;2024-02-26T06:12:30;6.97;66.25
69208;SHT31;70114;47.690;8.898;2024-02-26T06:14:56;6.92;66.52
69208;SHT31;70114;47.690;8.898;2024-02-26T06:17:21;6.93;66.98
69208;SHT31;70114;47.690;8.898;2024-02-26T06:19:46;6.95;66.27
69208;SHT31;70114;47.690;8.898;2024-02-26T06:22:12;7.00;66.80
69208;SHT31;70114;47.690;8.898;2024-02-26T06:24:37;7.02;67.34
69208;SHT31;70114;47.690;8.898;2024-02-26T06:27:03;6.96;67.64
69208;SHT31;70114;47.690;8.898;2024-02-26T06:29:28;6.89;67.58
69208;SHT31;70114;47.690;8.898;2024-02-26T06:31:54;6.93;69.46
69208;SHT31;70114;47.690;8.898;2024-02-26T06:34:19;6.99;68.43
69208;SHT31;70114;47.690;8.898;2024-02-26T06:36:45;7.04;68.55
69208;SHT31;70114;47.690;8.898;2024-02-26T06:39:10;7.10;68.71
69208;SHT31;70114;47.690;8.898;2024-02-26T06:41:37;7.16;68.80
69208;SHT31;70114;47.690;8.898;2024-02-26T06:44:04;7.19;68.83
69208;SHT31;70114;47.690;8.898;2024-02-26T06:46:30;7.07;70.34
69208;SHT31;70114;47.690;8.898;2024-02-26T06:48:56;6.96;71.08
69208;SHT31;70114;47.690;8.898;2024-02-26T06:51:21;7.03;70.19
69208;SHT31;70114;47.690;8.898;2024-02-26T06:53:49;7.09;68.91
69208;SHT31;70114;47.690;8.898;2024-02-26T06:56:14;7.24;67.59
69208;SHT31;70114;47.690;8.898;2024-02-26T06:58:40;7.23;66.77
69208;SHT31;70114;47.690;8.898;2024-02-26T07:01:05;7.16;65.18
69208;SHT31;70114;47.690;8.898;2024-02-26T07:03:33;7.32;63.15
69208;SHT31;70114;47.690;8.898;2024-02-26T07:05:58;7.55;63.24
69208;SHT31;70114;47.690;8.898;2024-02-26T07:08:24;7.59;62.73
69208;SHT31;70114;47.690;8.898;2024-02-26T07:10:49;7.68;62.01
69208;SHT31;70114;47.690;8.898;2024-02-26T07:13:14;7.77;61.47
69208;SHT31;70114;47.690;8.898;2024-02-26T07:15:40;7.79;61.03
69208;SHT31;70114;47.690;8.898;2024-02-26T07:18:05;7.88;60.32
69208;SHT31;70114;47.690;8.898;2024-02-26T07:20:30;7.99;59.91
69208;SHT31;70114;47.690;8.898;2024-02-26T07:22:56;8.05;59.99
69208;SHT31;70114;47.690;8.898;2024-02-26T07:25:22;7.74;60.09
69208;SHT31;70114;47.690;8.898;2024-02-26T07:27:47;7.64;60.15
69208;SHT31;70114;47.690;8.898;2024-02-26T07:30:13;7.50;61.53
69208;SHT31;70114;47.690;8.898;2024-02-26T07:32:38;7.57;61.61
69208;SHT31;70114;47.690;8.898;2024-02-26T07:35:04;7.48;61.93
69208;SHT31;70114;47.690;8.898;2024-02-26T07:37:30;7.71;62.13
69208;SHT31;70114;47.690;8.898;2024-02-26T07:39:55;7.65;63.09
69208;SHT31;70114;47.690;8.898;2024-02-26T07:42:21;7.67;62.93
69208;SHT31;70114;47.690;8.898;2024-02-26T07:44:46;7.77;62.31
69208;SHT31;70114;47.690;8.898;2024-02-26T07:47:11;7.88;62.01
69208;SHT31;70114;47.690;8.898;2024-02-26T07:49:37;7.83;63.41
69208;SHT31;70114;47.690;8.898;2024-02-26T07:52:02;7.78;64.82
69208;SHT31;70114;47.690;8.898;2024-02-26T07:54:27;7.82;65.50
69208;SHT31;70114;47.690;8.898;2024-02-26T07:56:53;8.00;65.19
69208;SHT31;70114;47.690;8.898;2024-02-26T07:59:18;8.14;64.52
69208;SHT31;70114;47.690;8.898;2024-02-26T08:01:44;8.37;64.02
69208;SHT31;70114;47.690;8.898;2024-02-26T08:04:09;8.44;64.24
69208;SHT31;70114;47.690;8.898;2024-02-26T08:06:34;8.51;62.32
69208;SHT31;70114;47.690;8.898;2024-02-26T08:09:00;8.67;61.81
69208;SHT31;70114;47.690;8.898;2024-02-26T08:11:25;8.78;61.05
69208;SHT31;70114;47.690;8.898;2024-02-26T08:13:51;8.85;60.68
69208;SHT31;70114;47.690;8.898;2024-02-26T08:16:16;9.02;60.80
69208;SHT31;70114;47.690;8.898;2024-02-26T08:18:42;9.12;60.96
69208;SHT31;70114;47.690;8.898;2024-02-26T08:21:07;9.05;61.38
69208;SHT31;70114;47.690;8.898;2024-02-26T08:23:33;9.24;61.23
69208;SHT31;70114;47.690;8.898;2024-02-26T08:25:59;9.37;61.36
69208;SHT31;70114;47.690;8.898;2024-02-26T08:28:24;9.62;59.77
69208;SHT31;70114;47.690;8.898;2024-02-26T08:30:50;9.73;58.83
69208;SHT31;70114;47.690;8.898;2024-02-26T08:33:15;9.75;58.79
69208;SHT31;70114;47.690;8.898;2024-02-26T08:35:40;9.82;57.93
69208;SHT31;70114;47.690;8.898;2024-02-26T08:38:06;9.84;57.45
69208;SHT31;70114;47.690;8.898;2024-02-26T08:40:31;9.97;57.18
69208;SHT31;70114;47.690;8.898;2024-02-26T08:42:56;10.10;55.58
69208;SHT31;70114;47.690;8.898;2024-02-26T08:45:22;10.12;54.47
69208;SHT31;70114;47.690;8.898;2024-02-26T08:47:48;10.10;55.32
69208;SHT31;70114;47.690;8.898;2024-02-26T08:50:14;10.19;53.47
69208;SHT31;70114;47.690;8.898;2024-02-26T08:52:39;10.19;53.36
69208;SHT31;70114;47.690;8.898;2024-02-26T08:55:06;9.97;52.93
69208;SHT31;70114;47.690;8.898;2024-02-26T08:57:33;9.84;54.12
69208;SHT31;70114;47.690;8.898;2024-02-26T08:59:59;9.50;56.98
69208;SHT31;70114;47.690;8.898;2024-02-26T09:02:26;9.48;58.26
69208;SHT31;70114;47.690;8.898;2024-02-26T09:04:51;9.41;57.41
69208;SHT31;70114;47.690;8.898;2024-02-26T09:07:19;9.47;60.13
69208;SHT31;70114;47.690;8.898;2024-02-26T09:09:44;9.48;59.41
69208;SHT31;70114;47.690;8.898;2024-02-26T09:12:10;9.58;60.15
69208;SHT31;70114;47.690;8.898;2024-02-26T09:14:35;9.37;60.24
69208;SHT31;70114;47.690;8.898;2024-02-26T09:17:01;9.44;60.51
69208;SHT31;70114;47.690;8.898;2024-02-26T09:19:26;9.27;60.27
69208;SHT31;70114;47.690;8.898;2024-02-26T09:21:53;9.75;61.30
69208;SHT31;70114;47.690;8.898;2024-02-26T09:24:22;9.85;59.31
69208;SHT31;70114;47.690;8.898;2024-02-26T09:26:48;9.82;58.62
69208;SHT31;70114;47.690;8.898;2024-02-26T09:29:13;9.95;58.60
69208;SHT31;70114;47.690;8.898;2024-02-26T09:31:38;9.85;57.97
69208;SHT31;70114;47.690;8.898;2024-02-26T09:34:06;9.84;58.10
69208;SHT31;70114;47.690;8.898;2024-02-26T09:36:33;9.55;58.37
69208;SHT31;70114;47.690;8.898;2024-02-26T09:38:58;9.50;59.51
69208;SHT31;70114;47.690;8.898;2024-02-26T09:41:27;9.51;59.48
69208;SHT31;70114;47.690;8.898;2024-02-26T09:43:56;9.55;61.05
69208;SHT31;70114;47.690;8.898;2024-02-26T09:46:22;9.47;62.63
69208;SHT31;70114;47.690;8.898;2024-02-26T09:48:49;9.58;60.96
69208;SHT31;70114;47.690;8.898;2024-02-26T09:51:15;9.87;60.59
69208;SHT31;70114;47.690;8.898;2024-02-26T09:53:43;9.73;59.82
69208;SHT31;70114;47.690;8.898;2024-02-26T09:56:11;9.58;60.00
69208;SHT31;70114;47.690;8.898;2024-02-26T09:58:38;9.77;60.91
69208;SHT31;70114;47.690;8.898;2024-02-26T10:01:11;9.85;60.74
69208;SHT31;70114;47.690;8.898;2024-02-26T10:03:39;9.99;60.27
69208;SHT31;70114;47.690;8.898;2024-02-26T10:06:08;10.28;59.53
69208;SHT31;70114;47.690;8.898;2024-02-26T10:08:35;10.36;59.86
69208;SHT31;70114;47.690;8.898;2024-02-26T10:11:00;10.39;58.44
69208;SHT31;70114;47.690;8.898;2024-02-26T10:13:26;10.60;57.73
69208;SHT31;70114;47.690;8.898;2024-02-26T10:15:51;10.75;57.17
69208;SHT31;70114;47.690;8.898;2024-02-26T10:18:17;10.73;56.33
69208;SHT31;70114;47.690;8.898;2024-02-26T10:20:43;10.74;55.74
69208;SHT31;70114;47.690;8.898;2024-02-26T10:23:25;10.91;55.65
69208;SHT31;70114;47.690;8.898;2024-02-26T10:25:54;11.00;55.20
69208;SHT31;70114;47.690;8.898;2024-02-26T10:28:20;11.05;54.40
69208;SHT31;70114;47.690;8.898;2024-02-26T10:30:46;11.11;53.95
69208;SHT31;70114;47.690;8.898;2024-02-26T10:33:12;11.11;54.47
69208;SHT31;70114;47.690;8.898;2024-02-26T10:35:38;11.00;54.17
69208;SHT31;70114;47.690;8.898;2024-02-26T10:38:06;11.01;52.99
69208;SHT31;70114;47.690;8.898;2024-02-26T10:40:32;10.90;54.22
69208;SHT31;70114;47.690;8.898;2024-02-26T10:42:58;10.97;54.07
69208;SHT31;70114;47.690;8.898;2024-02-26T10:45:23;10.97;54.46
69208;SHT31;70114;47.690;8.898;2024-02-26T10:47:49;10.91;55.01
69208;SHT31;70114;47.690;8.898;2024-02-26T10:50:15;10.93;55.53
69208;SHT31;70114;47.690;8.898;2024-02-26T10:52:42;10.75;55.82
69208;SHT31;70114;47.690;8.898;2024-02-26T10:55:12;10.98;55.49
69208;SHT31;70114;47.690;8.898;2024-02-26T10:57:40;11.05;55.54
69208;SHT31;70114;47.690;8.898;2024-02-26T11:00:06;11.07;55.27
69208;SHT31;70114;47.690;8.898;2024-02-26T11:02:33;11.04;55.47
69208;SHT31;70114;47.690;8.898;2024-02-26T11:05:05;11.12;54.95
69208;SHT31;70114;47.690;8.898;2024-02-26T11:07:32;11.05;54.88
69208;SHT31;70114;47.690;8.898;2024-02-26T11:10:00;10.91;54.72
69208;SHT31;70114;47.690;8.898;2024-02-26T11:12:31;11.07;54.85
69208;SHT31;70114;47.690;8.898;2024-02-26T11:14:57;11.08;54.08
69208;SHT31;70114;47.690;8.898;2024-02-26T11:17:27;11.19;54.53
69208;SHT31;70114;47.690;8.898;2024-02-26T11:19:58;11.25;54.31
69208;SHT31;70114;47.690;8.898;2024-02-26T11:22:26;11.35;54.26
69208;SHT31;70114;47.690;8.898;2024-02-26T11:24:52;11.39;54.03
69208;SHT31;70114;47.690;8.898;2024-02-26T11:27:23;11.42;54.21
69208;SHT31;70114;47.690;8.898;2024-02-26T11:29:50;11.44;54.14
69208;SHT31;70114;47.690;8.898;2024-02-26T11:32:17;11.40;53.08
69208;SHT31;70114;47.690;8.898;2024-02-26T11:34:43;11.25;52.02
69208;SHT31;70114;47.690;8.898;2024-02-26T11:37:14;11.42;52.77
69208;SHT31;70114;47.690;8.898;2024-02-26T11:39:40;11.53;52.31
69208;SHT31;70114;47.690;8.898;2024-02-26T11:42:07;11.50;52.00
69208;SHT31;70114;47.690;8.898;2024-02-26T11:44:33;11.63;52.30
69208;SHT31;70114;47.690;8.898;2024-02-26T11:46:59;11.52;52.37
69208;SHT31;70114;47.690;8.898;2024-02-26T11:49:34;11.39;53.51
69208;SHT31;70114;47.690;8.898;2024-02-26T11:52:08;11.40;52.79
69208;SHT31;70114;47.690;8.898;2024-02-26T11:57:28;11.38;53.28
69208;SHT31;70114;47.690;8.898;2024-02-26T12:00:11;11.53;53.96
69208;SHT31;70114;47.690;8.898;2024-02-26T12:02:42;11.65;53.68
69208;SHT31;70114;47.690;8.898;2024-02-26T12:05:09;11.60;53.31
69208;SHT31;70114;47.690;8.898;2024-02-26T12:07:39;11.65;52.31
69208;SHT31;70114;47.690;8.898;2024-02-26T12:10:26;11.79;53.19
69208;SHT31;70114;47.690;8.898;2024-02-26T12:13:14;11.81;52.56
69208;SHT31;70114;47.690;8.898;2024-02-26T12:15:41;11.76;53.12
69208;SHT31;70114;47.690;8.898;2024-02-26T12:18:08;11.31;53.35
69208;SHT31;70114;47.690;8.898;2024-02-26T12:20:36;11.56;53.99
69208;SHT31;70114;47.690;8.898;2024-02-26T12:23:04;11.67;53.68
69208;SHT31;70114;47.690;8.898;2024-02-26T12:25:31;11.79;52.29
69208;SHT31;70114;47.690;8.898;2024-02-26T12:27:57;11.81;52.88
69208;SHT31;70114;47.690;8.898;2024-02-26T12:30:23;11.74;51.80
69208;SHT31;70114;47.690;8.898;2024-02-26T12:32:50;11.88;52.32
69208;SHT31;70114;47.690;8.898;2024-02-26T12:35:16;12.11;51.88
69208;SHT31;70114;47.690;8.898;2024-02-26T12:37:44;12.18;51.86
69208;SHT31;70114;47.690;8.898;2024-02-26T12:40:11;12.08;52.46
69208;SHT31;70114;47.690;8.898;2024-02-26T12:42:38;12.45;52.60
69208;SHT31;70114;47.690;8.898;2024-02-26T12:45:09;12.46;51.45
69208;SHT31;70114;47.690;8.898;2024-02-26T12:47:36;12.52;50.77
69208;SHT31;70114;47.690;8.898;2024-02-26T12:50:02;12.65;49.94
69208;SHT31;70114;47.690;8.898;2024-02-26T12:52:32;12.82;50.35
69208;SHT31;70114;47.690;8.898;2024-02-26T12:54:58;13.02;51.24
69208;SHT31;70114;47.690;8.898;2024-02-26T12:57:24;13.13;50.64
69208;SHT31;70114;47.690;8.898;2024-02-26T12:59:50;13.14;50.12
69208;SHT31;70114;47.690;8.898;2024-02-26T13:02:16;13.50;50.22
69208;SHT31;70114;47.690;8.898;2024-02-26T13:04:42;13.54;49.89
69208;SHT31;70114;47.690;8.898;2024-02-26T13:07:07;13.78;48.92
69208;SHT31;70114;47.690;8.898;2024-02-26T13:09:33;13.61;48.20
69208;SHT31;70114;47.690;8.898;2024-02-26T13:12:04;13.68;49.02
69208;SHT31;70114;47.690;8.898;2024-02-26T13:14:29;13.87;48.75
69208;SHT31;70114;47.690;8.898;2024-02-26T13:16:57;13.52;48.54
69208;SHT31;70114;47.690;8.898;2024-02-26T13:19:24;13.44;49.26
69208;SHT31;70114;47.690;8.898;2024-02-26T13:21:49;13.24;50.01
69208;SHT31;70114;47.690;8.898;2024-02-26T13:24:15;13.65;49.53
69208;SHT31;70114;47.690;8.898;2024-02-26T13:26:40;13.72;49.61
69208;SHT31;70114;47.690;8.898;2024-02-26T13:29:06;13.80;49.14
69208;SHT31;70114;47.690;8.898;2024-02-26T13:31:38;13.99;50.75
69208;SHT31;70114;47.690;8.898;2024-02-26T13:34:03;14.23;48.85
69208;SHT31;70114;47.690;8.898;2024-02-26T13:36:29;13.30;49.41
69208;SHT31;70114;47.690;8.898;2024-02-26T13:38:55;13.86;49.45
69208;SHT31;70114;47.690;8.898;2024-02-26T13:41:21;13.80;49.82
69208;SHT31;70114;47.690;8.898;2024-02-26T13:43:47;14.00;49.17
69208;SHT31;70114;47.690;8.898;2024-02-26T13:46:13;13.72;50.27
69208;SHT31;70114;47.690;8.898;2024-02-26T13:48:40;13.70;50.79
69208;SHT31;70114;47.690;8.898;2024-02-26T13:51:06;13.73;50.21
69208;SHT31;70114;47.690;8.898;2024-02-26T13:53:32;13.57;50.28
69208;SHT31;70114;47.690;8.898;2024-02-26T13:55:57;13.32;51.14
69208;SHT31;70114;47.690;8.898;2024-02-26T13:58:24;13.44;51.48
69208;SHT31;70114;47.690;8.898;2024-02-26T14:00:49;13.23;51.99
69208;SHT31;70114;47.690;8.898;2024-02-26T14:03:15;13.18;52.79
69208;SHT31;70114;47.690;8.898;2024-02-26T14:05:41;13.30;52.50
69208;SHT31;70114;47.690;8.898;2024-02-26T14:08:07;13.18;51.08
69208;SHT31;70114;47.690;8.898;2024-02-26T14:10:32;12.97;52.07
69208;SHT31;70114;47.690;8.898;2024-02-26T14:12:58;13.06;51.59
69208;SHT31;70114;47.690;8.898;2024-02-26T14:15:24;12.90;51.98
69208;SHT31;70114;47.690;8.898;2024-02-26T14:17:51;13.02;52.04
69208;SHT31;70114;47.690;8.898;2024-02-26T14:20:18;12.97;52.14
69208;SHT31;70114;47.690;8.898;2024-02-26T14:22:43;12.82;52.22
69208;SHT31;70114;47.690;8.898;2024-02-26T14:25:09;12.76;52.00
69208;SHT31;70114;47.690;8.898;2024-02-26T14:27:34;12.65;52.00
69208;SHT31;70114;47.690;8.898;2024-02-26T14:30:00;12.77;52.45
69208;SHT31;70114;47.690;8.898;2024-02-26T14:32:25;12.75;51.99
69208;SHT31;70114;47.690;8.898;2024-02-26T14:34:51;12.75;51.86
69208;SHT31;70114;47.690;8.898;2024-02-26T14:37:16;12.67;52.05
69208;SHT31;70114;47.690;8.898;2024-02-26T14:39:41;12.67;52.54
69208;SHT31;70114;47.690;8.898;2024-02-26T14:42:07;12.66;52.14
69208;SHT31;70114;47.690;8.898;2024-02-26T14:44:32;12.65;52.28
69208;SHT31;70114;47.690;8.898;2024-02-26T14:46:58;12.69;52.37
69208;SHT31;70114;47.690;8.898;2024-02-26T14:49:23;12.53;51.81
69208;SHT31;70114;47.690;8.898;2024-02-26T14:51:48;12.55;51.98
69208;SHT31;70114;47.690;8.898;2024-02-26T14:54:14;12.48;52.23
69208;SHT31;70114;47.690;8.898;2024-02-26T14:56:40;12.45;52.03
69208;SHT31;70114;47.690;8.898;2024-02-26T14:59:05;12.41;52.23
69208;SHT31;70114;47.690;8.898;2024-02-26T15:01:31;12.42;52.23
69208;SHT31;70114;47.690;8.898;2024-02-26T15:03:57;12.44;52.09
69208;SHT31;70114;47.690;8.898;2024-02-26T15:06:23;12.41;51.81
69208;SHT31;70114;47.690;8.898;2024-02-26T15:08:48;12.36;52.30
69208;SHT31;70114;47.690;8.898;2024-02-26T15:11:13;12.36;51.93
69208;SHT31;70114;47.690;8.898;2024-02-26T15:13:39;12.36;51.40
69208;SHT31;70114;47.690;8.898;2024-02-26T15:16:05;12.36;51.92
69208;SHT31;70114;47.690;8.898;2024-02-26T15:18:31;12.35;51.60
69208;SHT31;70114;47.690;8.898;2024-02-26T15:20:56;12.29;51.64
69208;SHT31;70114;47.690;8.898;2024-02-26T15:23:22;12.39;51.55
69208;SHT31;70114;47.690;8.898;2024-02-26T15:25:47;12.31;51.45
69208;SHT31;70114;47.690;8.898;2024-02-26T15:28:13;12.07;51.65
69208;SHT31;70114;47.690;8.898;2024-02-26T15:30:40;12.16;52.08
69208;SHT31;70114;47.690;8.898;2024-02-26T15:33:05;12.21;52.52
69208;SHT31;70114;47.690;8.898;2024-02-26T15:35:31;12.18;53.03